sensor_id;sensor_type;location;lat;lon;timestamp;temperature;humidity
51035;DHT22;37062;52.546;13.230;2023-03-14T00:02:04;14.70;99.90
51035;DHT22;37062;52.546;13.230;2023-03-14T00:04:33;14.70;99.90
51035;DHT22;37062;52.546;13.230;2023-03-14T00:07:01;14.70;99.90
51035;DHT22;37062;52.546;13.230;2023-03-14T00:09:29;14.70;99.90
51035;DHT22;37062;52.546;13.230;2023-03-14T00:11:59;14.60;99.90
51035;DHT22;37062;52.546;13.230;2023-03-14T00:14:27;14.60;99.90
51035;DHT22;37062;52.546;13.230;2023-03-14T00:16:56;14.50;99.90
51035;DHT22;37062;52.546;13.230;2023-03-14T00:19:25;14.50;99.90
51035;DHT22;37062;52.546;13.230;2023-03-14T00:21:53;14.50;99.90
51035;DHT22;37062;52.546;13.230;2023-03-14T00:24:21;14.50;99.90
51035;DHT22;37062;52.546;13.230;2023-03-14T00:26:49;14.40;99.90
51035;DHT22;37062;52.546;13.230;2023-03-14T00:29:19;14.40;99.90
51035;DHT22;37062;52.546;13.230;2023-03-14T00:31:47;14.40;99.90
51035;DHT22;37062;52.546;13.230;2023-03-14T00:34:16;14.40;99.90
51035;DHT22;37062;52.546;13.230;2023-03-14T00:36:44;14.40;99.90
51035;DHT22;37062;52.546;13.230;2023-03-14T00:39:13;14.40;99.90
51035;DHT22;37062;52.546;13.230;2023-03-14T00:41:41;14.40;99.90
51035;DHT22;37062;52.546;13.230;2023-03-14T00:44:09;14.30;99.90
51035;DHT22;37062;52.546;13.230;2023-03-14T00:46:39;14.30;99.90
51035;DHT22;37062;52.546;13.230;2023-03-14T00:49:07;14.30;99.90
51035;DHT22;37062;52.546;13.230;2023-03-14T00:51:35;14.20;99.90
51035;DHT22;37062;52.546;13.230;2023-03-14T00:54:04;14.20;99.90
51035;DHT22;37062;52.546;13.230;2023-03-14T00:56:32;14.20;99.90
51035;DHT22;37062;52.546;13.230;2023-03-14T00:59:00;14.20;99.90
51035;DHT22;37062;52.546;13.230;2023-03-14T01:01:29;14.10;99.90
51035;DHT22;37062;52.546;13.230;2023-03-14T01:03:58;14.10;99.90
51035;DHT22;37062;52.546;13.230;2023-03-14T01:06:28;14.10;99.90
51035;DHT22;37062;52.546;13.230;2023-03-14T01:08:57;14.10;99.90
51035;DHT22;37062;52.546;13.230;2023-03-14T01:11:28;14.00;99.90
51035;DHT22;37062;52.546;13.230;2023-03-14T01:13:58;14.00;99.90
51035;DHT22;37062;52.546;13.230;2023-03-14T01:16:29;14.00;99.90
51035;DHT22;37062;52.546;13.230;2023-03-14T01:19:02;13.90;99.90
51035;DHT22;37062;52.546;13.230;2023-03-14T01:21:32;13.90;99.90
51035;DHT22;37062;52.546;13.230;2023-03-14T01:24:02;13.90;99.90
51035;DHT22;37062;52.546;13.230;2023-03-14T01:26:33;13.90;99.90
51035;DHT22;37062;52.546;13.230;2023-03-14T01:29:03;13.80;99.90
51035;DHT22;37062;52.546;13.230;2023-03-14T01:31:34;13.80;99.90
51035;DHT22;37062;52.546;13.230;2023-03-14T01:34:04;13.80;99.90
51035;DHT22;37062;52.546;13.230;2023-03-14T01:36:32;13.80;99.90
51035;DHT22;37062;52.546;13.230;2023-03-14T01:39:01;13.80;99.90
51035;DHT22;37062;52.546;13.230;2023-03-14T01:41:29;13.80;99.90
51035;DHT22;37062;52.546;13.230;2023-03-14T01:43:59;13.70;99.90
51035;DHT22;37062;52.546;13.230;2023-03-14T01:46:35;13.70;99.90
51035;DHT22;37062;52.546;13.230;2023-03-14T01:49:15;13.70;99.90
51035;DHT22;37062;52.546;13.230;2023-03-14T01:51:57;13.70;99.90
51035;DHT22;37062;52.546;13.230;2023-03-14T01:54:30;13.70;99.90
51035;DHT22;37062;52.546;13.230;2023-03-14T01:57:06;13.70;99.90
51035;DHT22;37062;52.546;13.230;2023-03-14T01:59:36;13.70;99.90
51035;DHT22;37062;52.546;13.230;2023-03-14T02:02:07;13.70;99.90
51035;DHT22;37062;52.546;13.230;2023-03-14T02:04:40;13.70;99.90
51035;DHT22;37062;52.546;13.230;2023-03-14T02:07:13;13.70;99.90
51035;DHT22;37062;52.546;13.230;2023-03-14T02:09:53;13.60;99.90
51035;DHT22;37062;52.546;13.230;2023-03-14T02:12:26;13.60;99.90
51035;DHT22;37062;52.546;13.230;2023-03-14T02:15:27;13.60;99.90
51035;DHT22;37062;52.546;13.230;2023-03-14T02:18:00;13.60;99.90
51035;DHT22;37062;52.546;13.230;2023-03-14T02:21:00;13.60;99.90
51035;DHT22;37062;52.546;13.230;2023-03-14T02:23:33;13.60;99.90
51035;DHT22;37062;52.546;13.230;2023-03-14T02:26:05;13.60;99.90
51035;DHT22;37062;52.546;13.230;2023-03-14T02:28:37;13.60;99.90
51035;DHT22;37062;52.546;13.230;2023-03-14T02:31:06;13.60;99.90
51035;DHT22;37062;52.546;13.230;2023-03-14T02:33:36;13.60;99.90
51035;DHT22;37062;52.546;13.230;2023-03-14T02:36:09;13.60;99.90
51035;DHT22;37062;52.546;13.230;2023-03-14T02:38:44;13.60;99.90
51035;DHT22;37062;52.546;13.230;2023-03-14T02:41:14;13.60;99.90
51035;DHT22;37062;52.546;13.230;2023-03-14T02:43:51;13.60;99.90
51035;DHT22;37062;52.546;13.230;2023-03-14T02:46:20;13.60;99.90
51035;DHT22;37062;52.546;13.230;2023-03-14T02:48:51;13.60;99.90
51035;DHT22;37062;52.546;13.230;2023-03-14T02:51:21;13.60;99.90
51035;DHT22;37062;52.546;13.230;2023-03-14T02:53:50;13.60;99.90
51035;DHT22;37062;52.546;13.230;2023-03-14T02:56:21;13.60;99.90
51035;DHT22;37062;52.546;13.230;2023-03-14T02:58:50;13.60;99.90
51035;DHT22;37062;52.546;13.230;2023-03-14T03:01:27;13.50;99.90
51035;DHT22;37062;52.546;13.230;2023-03-14T03:03:55;13.50;99.90
51035;DHT22;37062;52.546;13.230;2023-03-14T03:06:24;13.50;99.90
51035;DHT22;37062;52.546;13.230;2023-03-14T03:08:53;13.50;99.90
51035;DHT22;37062;52.546;13.230;2023-03-14T03:11:23;13.40;99.90
51035;DHT22;37062;52.546;13.230;2023-03-14T03:13:52;13.40;99.90
51035;DHT22;37062;52.546;13.230;2023-03-14T03:16:21;13.40;99.90
51035;DHT22;37062;52.546;13.230;2023-03-14T03:18:49;13.40;99.90
51035;DHT22;37062;52.546;13.230;2023-03-14T03:21:17;13.40;99.90
51035;DHT22;37062;52.546;13.230;2023-03-14T03:23:51;13.40;99.90
51035;DHT22;37062;52.546;13.230;2023-03-14T03:26:19;13.30;99.90
51035;DHT22;37062;52.546;13.230;2023-03-14T03:28:51;13.40;99.90
51035;DHT22;37062;52.546;13.230;2023-03-14T03:31:21;13.40;99.90
51035;DHT22;37062;52.546;13.230;2023-03-14T03:33:49;13.40;99.90
51035;DHT22;37062;52.546;13.230;2023-03-14T03:36:21;13.40;99.90
51035;DHT22;37062;52.546;13.230;2023-03-14T03:38:50;13.30;99.90
51035;DHT22;37062;52.546;13.230;2023-03-14T03:41:18;13.30;99.90
51035;DHT22;37062;52.546;13.230;2023-03-14T03:43:49;13.30;99.90
51035;DHT22;37062;52.546;13.230;2023-03-14T03:46:18;13.30;99.90
51035;DHT22;37062;52.546;13.230;2023-03-14T03:48:47;13.30;99.90
51035;DHT22;37062;52.546;13.230;2023-03-14T03:51:16;13.30;99.90
51035;DHT22;37062;52.546;13.230;2023-03-14T03:53:44;13.30;99.90
51035;DHT22;37062;52.546;13.230;2023-03-14T03:56:17;13.30;99.90
51035;DHT22;37062;52.546;13.230;2023-03-14T03:58:46;13.30;99.90
51035;DHT22;37062;52.546;13.230;2023-03-14T04:01:14;13.30;99.90
51035;DHT22;37062;52.546;13.230;2023-03-14T04:03:48;13.30;99.90
51035;DHT22;37062;52.546;13.230;2023-03-14T04:06:17;13.20;99.90
51035;DHT22;37062;52.546;13.230;2023-03-14T04:08:48;13.20;99.90
51035;DHT22;37062;52.546;13.230;2023-03-14T04:11:38;13.20;99.90
51035;DHT22;37062;52.546;13.230;2023-03-14T04:14:35;13.20;99.90
51035;DHT22;37062;52.546;13.230;2023-03-14T04:17:30;13.10;99.90
51035;DHT22;37062;52.546;13.230;2023-03-14T04:20:00;13.20;99.90
51035;DHT22;37062;52.546;13.230;2023-03-14T04:22:34;13.20;99.90
51035;DHT22;37062;52.546;13.230;2023-03-14T04:25:05;13.20;99.90
51035;DHT22;37062;52.546;13.230;2023-03-14T04:27:40;13.20;99.90
51035;DHT22;37062;52.546;13.230;2023-03-14T04:30:17;13.20;99.90
51035;DHT22;37062;52.546;13.230;2023-03-14T04:32:50;13.10;99.90
51035;DHT22;37062;52.546;13.230;2023-03-14T04:35:22;13.20;99.90
51035;DHT22;37062;52.546;13.230;2023-03-14T04:37:55;13.20;99.90
51035;DHT22;37062;52.546;13.230;2023-03-14T04:40:24;13.20;99.90
51035;DHT22;37062;52.546;13.230;2023-03-14T04:42:58;13.20;99.90
51035;DHT22;37062;52.546;13.230;2023-03-14T04:45:26;13.20;99.90
51035;DHT22;37062;52.546;13.230;2023-03-14T04:47:58;13.20;99.90
51035;DHT22;37062;52.546;13.230;2023-03-14T04:50:27;13.30;99.90
51035;DHT22;37062;52.546;13.230;2023-03-14T04:52:56;13.30;99.90
51035;DHT22;37062;52.546;13.230;2023-03-14T04:55:24;13.30;99.90
51035;DHT22;37062;52.546;13.230;2023-03-14T04:57:54;13.30;99.90
51035;DHT22;37062;52.546;13.230;2023-03-14T05:00:24;13.30;99.90
51035;DHT22;37062;52.546;13.230;2023-03-14T05:03:13;13.30;99.90
51035;DHT22;37062;52.546;13.230;2023-03-14T05:05:59;13.30;99.90
51035;DHT22;37062;52.546;13.230;2023-03-14T05:08:37;13.30;99.90
51035;DHT22;37062;52.546;13.230;2023-03-14T05:11:37;13.30;99.90
51035;DHT22;37062;52.546;13.230;2023-03-14T05:14:31;13.30;99.90
51035;DHT22;37062;52.546;13.230;2023-03-14T05:17:02;13.30;99.90
51035;DHT22;37062;52.546;13.230;2023-03-14T05:19:46;13.30;99.90
51035;DHT22;37062;52.546;13.230;2023-03-14T05:22:51;13.30;99.90
51035;DHT22;37062;52.546;13.230;2023-03-14T05:25:37;13.30;99.90
51035;DHT22;37062;52.546;13.230;2023-03-14T05:28:24;13.40;99.90
51035;DHT22;37062;52.546;13.230;2023-03-14T05:31:24;13.40;99.90
51035;DHT22;37062;52.546;13.230;2023-03-14T05:34:28;13.40;99.90
51035;DHT22;37062;52.546;13.230;2023-03-14T05:37:10;13.40;99.90
51035;DHT22;37062;52.546;13.230;2023-03-14T05:40:00;13.40;99.90
51035;DHT22;37062;52.546;13.230;2023-03-14T05:42:38;13.40;99.90
51035;DHT22;37062;52.546;13.230;2023-03-14T05:45:35;13.40;99.90
51035;DHT22;37062;52.546;13.230;2023-03-14T05:48:29;13.40;99.90
51035;DHT22;37062;52.546;13.230;2023-03-14T05:51:16;13.40;99.90
51035;DHT22;37062;52.546;13.230;2023-03-14T05:54:14;13.40;99.90
51035;DHT22;37062;52.546;13.230;2023-03-14T05:56:46;13.40;99.90
51035;DHT22;37062;52.546;13.230;2023-03-14T05:59:24;13.40;99.90
51035;DHT22;37062;52.546;13.230;2023-03-14T06:02:15;13.40;99.90
51035;DHT22;37062;52.546;13.230;2023-03-14T06:04:54;13.50;99.90
51035;DHT22;37062;52.546;13.230;2023-03-14T06:07:22;13.50;99.90
51035;DHT22;37062;52.546;13.230;2023-03-14T06:09:51;13.50;99.90
51035;DHT22;37062;52.546;13.230;2023-03-14T06:12:20;13.50;99.90
51035;DHT22;37062;52.546;13.230;2023-03-14T06:14:50;13.50;99.90
51035;DHT22;37062;52.546;13.230;2023-03-14T06:17:18;13.50;99.90
51035;DHT22;37062;52.546;13.230;2023-03-14T06:19:52;13.40;99.90
51035;DHT22;37062;52.546;13.230;2023-03-14T06:22:21;13.40;99.90
51035;DHT22;37062;52.546;13.230;2023-03-14T06:24:50;13.50;99.90
51035;DHT22;37062;52.546;13.230;2023-03-14T06:27:20;13.50;99.90
51035;DHT22;37062;52.546;13.230;2023-03-14T06:29:53;13.60;99.90
51035;DHT22;37062;52.546;13.230;2023-03-14T06:32:21;13.60;99.90
51035;DHT22;37062;52.546;13.230;2023-03-14T06:34:52;13.70;99.90
51035;DHT22;37062;52.546;13.230;2023-03-14T06:37:21;13.80;99.90
51035;DHT22;37062;52.546;13.230;2023-03-14T06:39:52;13.90;99.90
51035;DHT22;37062;52.546;13.230;2023-03-14T06:42:41;13.90;99.90
51035;DHT22;37062;52.546;13.230;2023-03-14T06:45:10;14.00;99.90
51035;DHT22;37062;52.546;13.230;2023-03-14T06:47:38;14.00;99.90
51035;DHT22;37062;52.546;13.230;2023-03-14T06:50:09;14.10;99.90
51035;DHT22;37062;52.546;13.230;2023-03-14T06:52:38;14.10;99.90
51035;DHT22;37062;52.546;13.230;2023-03-14T06:55:08;14.20;99.90
51035;DHT22;37062;52.546;13.230;2023-03-14T06:57:37;14.20;99.90
51035;DHT22;37062;52.546;13.230;2023-03-14T07:00:09;14.30;99.90
51035;DHT22;37062;52.546;13.230;2023-03-14T07:02:39;14.30;99.90
51035;DHT22;37062;52.546;13.230;2023-03-14T07:05:21;14.40;99.90
51035;DHT22;37062;52.546;13.230;2023-03-14T07:07:50;14.60;99.90
51035;DHT22;37062;52.546;13.230;2023-03-14T07:10:18;14.90;99.90
51035;DHT22;37062;52.546;13.230;2023-03-14T07:12:46;15.00;99.90
51035;DHT22;37062;52.546;13.230;2023-03-14T07:15:17;15.00;99.90
51035;DHT22;37062;52.546;13.230;2023-03-14T07:17:51;15.00;99.90
51035;DHT22;37062;52.546;13.230;2023-03-14T07:20:22;15.00;99.90
51035;DHT22;37062;52.546;13.230;2023-03-14T07:22:51;15.00;99.90
51035;DHT22;37062;52.546;13.230;2023-03-14T07:25:29;15.10;99.90
51035;DHT22;37062;52.546;13.230;2023-03-14T07:27:58;15.20;99.90
51035;DHT22;37062;52.546;13.230;2023-03-14T07:30:28;15.50;99.90
51035;DHT22;37062;52.546;13.230;2023-03-14T07:32:58;16.10;99.90
51035;DHT22;37062;52.546;13.230;2023-03-14T07:35:28;16.60;99.90
51035;DHT22;37062;52.546;13.230;2023-03-14T07:37:56;16.90;99.90
51035;DHT22;37062;52.546;13.230;2023-03-14T07:40:33;17.00;99.90
51035;DHT22;37062;52.546;13.230;2023-03-14T07:43:03;17.40;99.90
51035;DHT22;37062;52.546;13.230;2023-03-14T07:45:47;17.70;99.90
51035;DHT22;37062;52.546;13.230;2023-03-14T07:48:17;18.00;99.90
51035;DHT22;37062;52.546;13.230;2023-03-14T07:50:48;18.10;99.90
51035;DHT22;37062;52.546;13.230;2023-03-14T07:53:17;18.30;99.90
51035;DHT22;37062;52.546;13.230;2023-03-14T07:55:45;18.20;99.90
51035;DHT22;37062;52.546;13.230;2023-03-14T07:58:14;18.20;99.90
51035;DHT22;37062;52.546;13.230;2023-03-14T08:00:43;18.10;99.90
51035;DHT22;37062;52.546;13.230;2023-03-14T08:03:12;17.90;99.90
51035;DHT22;37062;52.546;13.230;2023-03-14T08:05:41;17.70;99.90
51035;DHT22;37062;52.546;13.230;2023-03-14T08:08:09;17.60;99.90
51035;DHT22;37062;52.546;13.230;2023-03-14T08:10:38;17.50;99.90
51035;DHT22;37062;52.546;13.230;2023-03-14T08:13:07;17.40;99.90
51035;DHT22;37062;52.546;13.230;2023-03-14T08:15:35;17.40;99.90
51035;DHT22;37062;52.546;13.230;2023-03-14T08:18:04;17.20;99.90
51035;DHT22;37062;52.546;13.230;2023-03-14T08:20:35;17.20;99.90
51035;DHT22;37062;52.546;13.230;2023-03-14T08:23:04;17.10;99.90
51035;DHT22;37062;52.546;13.230;2023-03-14T08:25:32;17.00;99.90
51035;DHT22;37062;52.546;13.230;2023-03-14T08:28:01;16.90;99.90
51035;DHT22;37062;52.546;13.230;2023-03-14T08:30:29;16.80;99.90
51035;DHT22;37062;52.546;13.230;2023-03-14T08:32:58;16.70;99.90
51035;DHT22;37062;52.546;13.230;2023-03-14T08:35:27;16.60;99.90
51035;DHT22;37062;52.546;13.230;2023-03-14T08:37:56;16.50;99.90
51035;DHT22;37062;52.546;13.230;2023-03-14T08:40:25;16.40;99.90
51035;DHT22;37062;52.546;13.230;2023-03-14T08:42:53;16.40;99.90
51035;DHT22;37062;52.546;13.230;2023-03-14T08:45:22;16.30;99.90
51035;DHT22;37062;52.546;13.230;2023-03-14T08:47:51;16.30;99.90
51035;DHT22;37062;52.546;13.230;2023-03-14T08:50:20;16.30;99.90
51035;DHT22;37062;52.546;13.230;2023-03-14T08:52:50;16.30;99.90
51035;DHT22;37062;52.546;13.230;2023-03-14T08:55:19;16.30;99.90
51035;DHT22;37062;52.546;13.230;2023-03-14T08:57:48;16.40;99.90
51035;DHT22;37062;52.546;13.230;2023-03-14T09:00:17;16.30;99.90
51035;DHT22;37062;52.546;13.230;2023-03-14T09:02:45;16.20;99.90
51035;DHT22;37062;52.546;13.230;2023-03-14T09:05:14;16.20;99.90
51035;DHT22;37062;52.546;13.230;2023-03-14T09:07:42;16.30;99.90
51035;DHT22;37062;52.546;13.230;2023-03-14T09:10:11;16.40;99.90
51035;DHT22;37062;52.546;13.230;2023-03-14T09:12:41;16.50;99.90
51035;DHT22;37062;52.546;13.230;2023-03-14T09:15:10;16.60;99.90
51035;DHT22;37062;52.546;13.230;2023-03-14T09:17:38;16.70;99.90
51035;DHT22;37062;52.546;13.230;2023-03-14T09:20:07;17.00;99.90
51035;DHT22;37062;52.546;13.230;2023-03-14T09:22:36;17.20;99.90
51035;DHT22;37062;52.546;13.230;2023-03-14T09:25:05;17.40;99.90
51035;DHT22;37062;52.546;13.230;2023-03-14T09:27:34;17.70;99.90
51035;DHT22;37062;52.546;13.230;2023-03-14T09:30:04;18.10;99.90
51035;DHT22;37062;52.546;13.230;2023-03-14T09:32:32;18.40;99.90
51035;DHT22;37062;52.546;13.230;2023-03-14T09:35:01;18.70;99.90
51035;DHT22;37062;52.546;13.230;2023-03-14T09:37:29;19.00;99.90
51035;DHT22;37062;52.546;13.230;2023-03-14T09:39:57;19.20;99.90
51035;DHT22;37062;52.546;13.230;2023-03-14T09:42:26;19.10;99.90
51035;DHT22;37062;52.546;13.230;2023-03-14T09:44:57;18.90;99.90
51035;DHT22;37062;52.546;13.230;2023-03-14T09:47:29;18.80;99.90
51035;DHT22;37062;52.546;13.230;2023-03-14T09:49:57;18.70;99.90
51035;DHT22;37062;52.546;13.230;2023-03-14T09:52:30;18.60;99.90
51035;DHT22;37062;52.546;13.230;2023-03-14T09:55:01;18.50;99.90
51035;DHT22;37062;52.546;13.230;2023-03-14T09:57:33;18.40;99.90
51035;DHT22;37062;52.546;13.230;2023-03-14T10:00:05;18.40;99.90
51035;DHT22;37062;52.546;13.230;2023-03-14T10:02:45;18.30;99.90
51035;DHT22;37062;52.546;13.230;2023-03-14T10:05:16;18.20;99.90
51035;DHT22;37062;52.546;13.230;2023-03-14T10:07:45;18.10;99.90
51035;DHT22;37062;52.546;13.230;2023-03-14T10:10:18;17.90;99.90
51035;DHT22;37062;52.546;13.230;2023-03-14T10:12:48;17.90;99.90
51035;DHT22;37062;52.546;13.230;2023-03-14T10:15:25;17.90;99.90
51035;DHT22;37062;52.546;13.230;2023-03-14T10:17:55;17.90;99.90
51035;DHT22;37062;52.546;13.230;2023-03-14T10:20:32;17.80;99.90
51035;DHT22;37062;52.546;13.230;2023-03-14T10:23:03;17.60;99.90
51035;DHT22;37062;52.546;13.230;2023-03-14T10:25:33;17.60;99.90
51035;DHT22;37062;52.546;13.230;2023-03-14T10:28:04;17.50;99.90
51035;DHT22;37062;52.546;13.230;2023-03-14T10:30:39;17.40;99.90
51035;DHT22;37062;52.546;13.230;2023-03-14T10:33:21;17.30;99.90
51035;DHT22;37062;52.546;13.230;2023-03-14T10:35:54;17.30;99.90
51035;DHT22;37062;52.546;13.230;2023-03-14T10:38:24;17.10;99.90
51035;DHT22;37062;52.546;13.230;2023-03-14T10:40:54;17.00;99.90
51035;DHT22;37062;52.546;13.230;2023-03-14T10:43:25;17.00;99.90
51035;DHT22;37062;52.546;13.230;2023-03-14T10:45:56;16.90;99.90
51035;DHT22;37062;52.546;13.230;2023-03-14T10:48:35;16.90;99.90
51035;DHT22;37062;52.546;13.230;2023-03-14T10:51:06;16.90;99.90
51035;DHT22;37062;52.546;13.230;2023-03-14T10:53:41;16.90;99.90
51035;DHT22;37062;52.546;13.230;2023-03-14T10:56:12;16.90;99.90
51035;DHT22;37062;52.546;13.230;2023-03-14T10:58:42;16.80;99.90
51035;DHT22;37062;52.546;13.230;2023-03-14T11:01:38;16.80;99.90
51035;DHT22;37062;52.546;13.230;2023-03-14T11:04:18;16.80;99.90
51035;DHT22;37062;52.546;13.230;2023-03-14T11:06:55;16.70;99.90
51035;DHT22;37062;52.546;13.230;2023-03-14T11:09:29;16.60;99.90
51035;DHT22;37062;52.546;13.230;2023-03-14T11:12:05;16.60;99.90
51035;DHT22;37062;52.546;13.230;2023-03-14T11:14:44;16.50;99.90
51035;DHT22;37062;52.546;13.230;2023-03-14T11:17:18;16.40;99.90
51035;DHT22;37062;52.546;13.230;2023-03-14T11:20:19;16.40;99.90
51035;DHT22;37062;52.546;13.230;2023-03-14T11:22:56;16.40;99.90
51035;DHT22;37062;52.546;13.230;2023-03-14T11:25:31;16.40;99.90
51035;DHT22;37062;52.546;13.230;2023-03-14T11:28:07;16.50;99.90
51035;DHT22;37062;52.546;13.230;2023-03-14T11:30:42;16.50;99.90
51035;DHT22;37062;52.546;13.230;2023-03-14T11:33:16;16.60;99.90
51035;DHT22;37062;52.546;13.230;2023-03-14T11:35:51;16.50;99.90
51035;DHT22;37062;52.546;13.230;2023-03-14T11:38:29;16.50;99.90
51035;DHT22;37062;52.546;13.230;2023-03-14T11:40:58;16.50;99.90
51035;DHT22;37062;52.546;13.230;2023-03-14T11:43:30;16.40;99.90
51035;DHT22;37062;52.546;13.230;2023-03-14T11:46:05;16.40;99.90
51035;DHT22;37062;52.546;13.230;2023-03-14T11:48:39;16.50;99.90
51035;DHT22;37062;52.546;13.230;2023-03-14T11:51:15;16.40;99.90
51035;DHT22;37062;52.546;13.230;2023-03-14T11:53:51;16.40;99.90
51035;DHT22;37062;52.546;13.230;2023-03-14T11:56:29;16.40;99.90
51035;DHT22;37062;52.546;13.230;2023-03-14T11:59:03;16.40;99.90
51035;DHT22;37062;52.546;13.230;2023-03-14T12:01:41;16.30;99.90
51035;DHT22;37062;52.546;13.230;2023-03-14T12:04:19;16.30;99.90
51035;DHT22;37062;52.546;13.230;2023-03-14T12:06:51;16.40;99.90
51035;DHT22;37062;52.546;13.230;2023-03-14T12:09:21;16.50;99.90
51035;DHT22;37062;52.546;13.230;2023-03-14T12:11:52;16.70;99.90
51035;DHT22;37062;52.546;13.230;2023-03-14T12:14:25;16.80;99.90
51035;DHT22;37062;52.546;13.230;2023-03-14T12:16:55;16.90;99.90
51035;DHT22;37062;52.546;13.230;2023-03-14T12:19:33;16.90;99.90
51035;DHT22;37062;52.546;13.230;2023-03-14T12:22:26;16.90;99.90
51035;DHT22;37062;52.546;13.230;2023-03-14T12:24:59;17.00;99.90
51035;DHT22;37062;52.546;13.230;2023-03-14T12:27:46;17.00;99.90
51035;DHT22;37062;52.546;13.230;2023-03-14T12:30:25;17.10;99.90
51035;DHT22;37062;52.546;13.230;2023-03-14T12:36:17;17.40;99.90
51035;DHT22;37062;52.546;13.230;2023-03-14T12:38:55;17.40;99.90
51035;DHT22;37062;52.546;13.230;2023-03-14T12:41:28;17.30;99.90
51035;DHT22;37062;52.546;13.230;2023-03-14T12:50:35;17.20;99.90
51035;DHT22;37062;52.546;13.230;2023-03-14T12:56:11;17.20;99.90
51035;DHT22;37062;52.546;13.230;2023-03-14T12:58:44;17.20;99.90
51035;DHT22;37062;52.546;13.230;2023-03-14T13:01:17;17.20;99.90
51035;DHT22;37062;52.546;13.230;2023-03-14T13:03:47;17.20;99.90
51035;DHT22;37062;52.546;13.230;2023-03-14T13:06:51;17.20;99.90
51035;DHT22;37062;52.546;13.230;2023-03-14T13:12:38;17.30;99.90
51035;DHT22;37062;52.546;13.230;2023-03-14T13:15:20;17.30;99.90
51035;DHT22;37062;52.546;13.230;2023-03-14T13:17:53;17.30;99.90
51035;DHT22;37062;52.546;13.230;2023-03-14T13:20:26;17.30;99.90
51035;DHT22;37062;52.546;13.230;2023-03-14T13:22:56;17.20;99.90
51035;DHT22;37062;52.546;13.230;2023-03-14T13:25:29;17.10;99.90
51035;DHT22;37062;52.546;13.230;2023-03-14T13:28:01;17.10;99.90
51035;DHT22;37062;52.546;13.230;2023-03-14T13:30:38;17.10;99.90
51035;DHT22;37062;52.546;13.230;2023-03-14T13:33:13;17.10;99.90
51035;DHT22;37062;52.546;13.230;2023-03-14T13:35:44;17.00;99.90
51035;DHT22;37062;52.546;13.230;2023-03-14T13:38:17;17.00;99.90
51035;DHT22;37062;52.546;13.230;2023-03-14T13:40:46;16.90;99.90
51035;DHT22;37062;52.546;13.230;2023-03-14T13:43:21;16.90;99.90
51035;DHT22;37062;52.546;13.230;2023-03-14T13:45:53;16.90;99.90
51035;DHT22;37062;52.546;13.230;2023-03-14T13:48:26;17.00;99.90
51035;DHT22;37062;52.546;13.230;2023-03-14T13:50:58;17.10;99.90
51035;DHT22;37062;52.546;13.230;2023-03-14T13:53:29;17.20;99.90
51035;DHT22;37062;52.546;13.230;2023-03-14T13:56:01;17.20;99.90
51035;DHT22;37062;52.546;13.230;2023-03-14T13:58:31;17.20;99.90
51035;DHT22;37062;52.546;13.230;2023-03-14T14:01:03;17.10;99.90
51035;DHT22;37062;52.546;13.230;2023-03-14T14:03:34;17.00;99.90
51035;DHT22;37062;52.546;13.230;2023-03-14T14:06:09;17.00;99.90
51035;DHT22;37062;52.546;13.230;2023-03-14T14:08:41;17.00;99.90
51035;DHT22;37062;52.546;13.230;2023-03-14T14:11:20;17.10;99.90
51035;DHT22;37062;52.546;13.230;2023-03-14T14:13:55;17.20;99.90
51035;DHT22;37062;52.546;13.230;2023-03-14T14:16:25;17.20;99.90
51035;DHT22;37062;52.546;13.230;2023-03-14T14:18:55;17.10;99.90
51035;DHT22;37062;52.546;13.230;2023-03-14T14:21:25;17.10;99.90
51035;DHT22;37062;52.546;13.230;2023-03-14T14:23:53;17.10;99.90
51035;DHT22;37062;52.546;13.230;2023-03-14T14:26:22;17.10;99.90
51035;DHT22;37062;52.546;13.230;2023-03-14T14:29:01;17.20;99.90
51035;DHT22;37062;52.546;13.230;2023-03-14T14:31:30;17.20;99.90
51035;DHT22;37062;52.546;13.230;2023-03-14T14:33:59;17.20;99.90
51035;DHT22;37062;52.546;13.230;2023-03-14T14:36:30;17.20;99.90
51035;DHT22;37062;52.546;13.230;2023-03-14T14:39:00;17.20;99.90
51035;DHT22;37062;52.546;13.230;2023-03-14T14:41:33;17.10;99.90
51035;DHT22;37062;52.546;13.230;2023-03-14T14:44:04;17.10;99.90
51035;DHT22;37062;52.546;13.230;2023-03-14T14:46:35;17.00;99.90
51035;DHT22;37062;52.546;13.230;2023-03-14T14:49:08;16.90;99.90
51035;DHT22;37062;52.546;13.230;2023-03-14T14:51:41;16.80;99.90
51035;DHT22;37062;52.546;13.230;2023-03-14T14:54:13;16.80;99.90
51035;DHT22;37062;52.546;13.230;2023-03-14T14:56:47;16.80;99.90
51035;DHT22;37062;52.546;13.230;2023-03-14T14:59:23;16.70;99.90
51035;DHT22;37062;52.546;13.230;2023-03-14T15:01:55;16.70;99.90
51035;DHT22;37062;52.546;13.230;2023-03-14T15:04:24;16.60;99.90
51035;DHT22;37062;52.546;13.230;2023-03-14T15:06:53;16.50;99.90
51035;DHT22;37062;52.546;13.230;2023-03-14T15:09:22;16.20;99.90
51035;DHT22;37062;52.546;13.230;2023-03-14T15:11:53;13.80;99.90
51035;DHT22;37062;52.546;13.230;2023-03-14T15:14:23;11.70;99.90
51035;DHT22;37062;52.546;13.230;2023-03-14T15:16:51;10.80;99.90
51035;DHT22;37062;52.546;13.230;2023-03-14T15:19:21;10.40;99.90
51035;DHT22;37062;52.546;13.230;2023-03-14T15:21:51;10.00;99.90
51035;DHT22;37062;52.546;13.230;2023-03-14T15:24:20;9.50;99.90
51035;DHT22;37062;52.546;13.230;2023-03-14T15:26:48;9.00;99.90
51035;DHT22;37062;52.546;13.230;2023-03-14T15:29:17;8.70;99.90
51035;DHT22;37062;52.546;13.230;2023-03-14T15:31:46;8.50;99.90
51035;DHT22;37062;52.546;13.230;2023-03-14T15:34:15;8.30;99.90
51035;DHT22;37062;52.546;13.230;2023-03-14T15:36:43;8.10;99.90
51035;DHT22;37062;52.546;13.230;2023-03-14T15:39:12;8.10;99.90
51035;DHT22;37062;52.546;13.230;2023-03-14T15:41:40;7.90;99.90
51035;DHT22;37062;52.546;13.230;2023-03-14T15:44:08;7.70;99.90
51035;DHT22;37062;52.546;13.230;2023-03-14T15:46:37;7.50;99.90
51035;DHT22;37062;52.546;13.230;2023-03-14T15:49:08;7.30;99.90
51035;DHT22;37062;52.546;13.230;2023-03-14T15:51:36;7.00;99.90
51035;DHT22;37062;52.546;13.230;2023-03-14T15:54:05;6.80;99.90
51035;DHT22;37062;52.546;13.230;2023-03-14T15:56:33;6.80;99.90
51035;DHT22;37062;52.546;13.230;2023-03-14T15:59:01;6.70;99.90
51035;DHT22;37062;52.546;13.230;2023-03-14T16:01:30;6.50;99.90
51035;DHT22;37062;52.546;13.230;2023-03-14T16:03:58;6.30;99.90
51035;DHT22;37062;52.546;13.230;2023-03-14T16:06:30;6.20;99.90
51035;DHT22;37062;52.546;13.230;2023-03-14T16:08:58;6.20;99.90